createdAt,value
2023-03-04T00:01:33.616Z,96847.47
2023-03-04T00:04:03.456Z,96850.75
2023-03-04T00:06:33.293Z,96858.66
2023-03-04T00:09:04.746Z,96857.56
2023-03-04T00:11:34.643Z,96862.20
2023-03-04T00:14:04.493Z,96864.63
2023-03-04T00:16:34.487Z,96872.28
2023-03-04T00:19:04.316Z,96870.38
2023-03-04T00:21:34.154Z,96874.17
2023-03-04T00:24:04.146Z,96880.17
2023-03-04T00:26:34.001Z,96884.81
2023-03-04T00:29:03.865Z,96879.36
2023-03-04T00:31:34.104Z,96880.46
2023-03-04T00:34:04.076Z,96882.89
2023-03-04T00:36:36.164Z,96897.08
2023-03-04T00:39:06.059Z,96892.72
2023-03-04T00:41:35.889Z,96895.16
2023-03-04T00:44:05.692Z,96900.34
2023-03-04T00:46:35.612Z,96904.17
2023-03-04T00:49:05.438Z,96907.70
2023-03-04T00:51:35.596Z,96907.97
2023-03-04T00:57:00.993Z,96917.23
2023-03-04T01:43:26.640Z,96944.48
2023-03-04T01:45:56.682Z,96946.11
2023-03-04T01:48:29.958Z,96953.21
2023-03-04T01:51:00.366Z,96955.93
2023-03-04T01:57:18.234Z,96966.02
2023-03-04T01:59:48.447Z,96968.19
2023-03-04T02:02:28.725Z,96968.99
2023-03-04T02:04:59.867Z,96968.18
2023-03-04T02:07:34.701Z,96966.81
2023-03-04T02:10:05.912Z,96969.79
2023-03-04T02:12:35.932Z,96968.16
2023-03-04T02:15:08.294Z,96972.80
2023-03-04T02:17:38.614Z,96971.43
2023-03-04T02:20:29.820Z,96977.13
2023-03-04T02:23:44.568Z,96977.13
2023-03-04T02:26:22.689Z,96988.84
2023-03-04T02:28:59.060Z,96996.74
2023-03-04T02:31:37.752Z,96995.66
2023-03-04T02:34:36.753Z,97004.09
2023-03-04T02:50:46.788Z,97010.09
2023-03-04T02:53:16.801Z,97013.56
2023-03-04T02:55:48.056Z,97017.09
2023-03-04T02:58:18.533Z,97021.44
2023-03-04T03:00:48.464Z,97031.23
2023-03-04T03:03:18.320Z,97039.68
2023-03-04T03:05:49.535Z,97039.68
2023-03-04T03:08:19.441Z,97041.04
2023-03-04T03:10:49.282Z,97045.94
2023-03-04T03:13:19.906Z,97048.91
2023-03-04T03:15:50.257Z,97048.91
2023-03-04T03:18:20.209Z,97052.17
2023-03-04T03:20:50.158Z,97061.44
2023-03-04T03:23:21.610Z,97063.05
2023-03-04T03:25:51.456Z,97067.68
2023-03-04T03:28:21.357Z,97067.66
2023-03-04T03:30:51.226Z,97072.56
2023-03-04T03:33:23.431Z,97069.02
2023-03-04T03:35:53.475Z,97076.63
2023-03-04T03:38:23.366Z,97078.30
2023-03-04T03:40:53.210Z,97084.28
2023-03-04T03:43:24.479Z,97091.34
2023-03-04T03:45:55.417Z,97079.59
2023-03-04T03:48:25.310Z,97093.50
2023-03-04T03:50:55.281Z,97093.78
2023-03-04T03:53:26.243Z,97095.69
2023-03-04T03:55:56.426Z,97099.76
2023-03-04T03:58:27.807Z,97099.20
2023-03-04T04:00:58.633Z,97103.01
2023-03-04T04:03:31.376Z,97093.22
2023-03-04T04:06:02.247Z,97093.48
2023-03-04T04:08:32.219Z,97098.66
2023-03-04T04:11:03.243Z,97104.92
2023-03-04T04:13:33.145Z,97108.19
2023-03-04T04:16:02.994Z,97107.92
2023-03-04T04:18:32.890Z,97111.70
2023-03-04T04:21:02.870Z,97112.25
2023-03-04T04:23:34.084Z,97116.61
2023-03-04T04:26:04.011Z,97117.43
2023-03-04T04:28:33.841Z,97113.86
2023-03-04T04:31:03.747Z,97110.06
2023-03-04T04:33:33.604Z,97110.31
2023-03-04T04:36:06.589Z,97109.77
2023-03-04T04:38:36.450Z,97118.20
2023-03-04T04:41:06.485Z,97114.92
2023-03-04T04:43:36.338Z,97119.55
2023-03-04T04:46:06.538Z,97116.00
2023-03-04T04:48:36.545Z,97119.52
2023-03-04T04:51:06.636Z,97118.97
2023-03-04T04:53:36.735Z,97125.23
2023-03-04T04:56:17.764Z,97119.25
2023-03-04T04:58:47.887Z,97119.80
2023-03-04T05:01:17.847Z,97126.84
2023-03-04T05:03:47.786Z,97124.67
2023-03-04T05:06:19.219Z,97123.29
2023-03-04T05:08:49.060Z,97124.65
2023-03-04T05:11:20.209Z,97122.98
2023-03-04T05:13:50.168Z,97129.27
2023-03-04T05:16:20.134Z,97131.43
2023-03-04T05:18:50.365Z,97132.52
2023-03-04T05:21:20.253Z,97125.42
2023-03-04T05:23:50.172Z,97122.95
2023-03-04T05:26:20.179Z,97116.97
2023-03-04T05:28:50.094Z,97119.13
2023-03-04T05:31:20.045Z,97122.94
2023-03-04T05:33:50.032Z,97132.98
2023-03-04T05:36:19.904Z,97132.14
2023-03-04T05:38:49.938Z,97130.51
2023-03-04T05:41:21.212Z,97132.11
2023-03-04T05:43:53.079Z,97126.95
2023-03-04T05:46:24.493Z,97129.38
2023-03-04T05:48:54.963Z,97128.50
2023-03-04T05:51:24.880Z,97124.70
2023-03-04T05:53:54.752Z,97126.03
2023-03-04T05:56:24.667Z,97124.66
2023-03-04T05:58:54.808Z,97122.48
2023-03-04T06:01:24.759Z,97120.28
2023-03-04T06:03:54.721Z,97118.63
2023-03-04T06:06:24.657Z,97115.62
2023-03-04T06:08:55.919Z,97117.52
2023-03-04T06:11:26.144Z,97112.89
2023-03-04T06:13:56.265Z,97107.42
2023-03-04T06:16:26.396Z,97108.78
2023-03-04T06:18:56.427Z,97103.59
2023-03-04T06:21:26.355Z,97104.92
2023-03-04T06:23:57.973Z,97108.19
2023-03-04T06:26:28.292Z,97111.19
2023-03-04T06:28:58.338Z,97112.52
2023-03-04T06:31:30.684Z,97113.30
2023-03-04T06:34:01.475Z,97119.84
2023-03-04T06:36:31.530Z,97121.98
2023-03-04T06:39:05.228Z,97126.04
2023-03-04T06:41:36.898Z,97124.92
2023-03-04T06:44:06.882Z,97124.89
2023-03-04T06:46:37.154Z,97130.06
2023-03-04T06:49:08.604Z,97133.88
2023-03-04T06:51:38.355Z,97137.65
2023-03-04T06:54:08.375Z,97143.05
2023-03-04T06:56:38.373Z,97143.87
2023-03-04T06:59:08.226Z,97149.28
2023-03-04T07:01:38.871Z,97147.38
2023-03-04T07:04:08.812Z,97148.98
2023-03-04T07:06:38.797Z,97160.38
2023-03-04T07:09:08.703Z,97163.09
2023-03-04T07:11:38.616Z,97174.23
2023-03-04T07:14:08.467Z,97174.20
2023-03-04T07:16:38.597Z,97189.16
2023-03-04T07:19:08.657Z,97189.16
2023-03-04T07:21:38.688Z,97184.20
2023-03-04T07:24:08.910Z,97190.45
2023-03-04T07:26:39.085Z,97188.27
2023-03-04T07:29:08.947Z,97179.52
2023-03-04T07:31:38.846Z,97190.66
2023-03-04T07:34:10.008Z,97187.09
2023-03-04T07:36:39.852Z,97184.10
2023-03-04T07:39:09.670Z,97189.50
2023-03-04T07:41:39.568Z,97185.67
2023-03-04T07:44:11.032Z,97181.56
2023-03-04T07:46:40.929Z,97178.30
2023-03-04T07:49:12.006Z,97172.32
2023-03-04T07:51:41.824Z,97173.61
2023-03-04T07:54:12.043Z,97165.46
2023-03-04T07:56:43.422Z,97163.53
2023-03-04T07:59:13.602Z,97170.32
2023-03-04T08:01:45.342Z,97168.39
2023-03-04T08:04:15.803Z,97170.25
2023-03-04T08:06:45.838Z,97162.92
2023-03-04T08:09:15.790Z,97162.89
2023-03-04T08:11:45.712Z,97170.77
2023-03-04T08:14:15.850Z,97166.11
2023-03-04T08:16:45.703Z,97161.22
2023-03-04T08:19:15.693Z,97157.66
2023-03-04T08:21:45.776Z,97151.95
2023-03-04T08:24:15.728Z,97158.16
2023-03-04T08:26:47.712Z,97155.45
2023-03-04T08:29:19.779Z,97156.50
2023-03-04T08:31:50.248Z,97157.01
2023-03-04T08:34:20.961Z,97156.47
2023-03-04T08:36:50.791Z,97148.55
2023-03-04T08:39:20.634Z,97149.84
2023-03-04T08:41:50.571Z,97149.84
2023-03-04T08:44:20.410Z,97155.54
2023-03-04T08:46:51.389Z,97152.83
2023-03-04T08:49:33.314Z,97159.89
2023-03-04T08:52:05.935Z,97158.73
2023-03-04T08:54:35.978Z,97161.17
2023-03-04T08:57:07.260Z,97169.56
2023-03-04T08:59:38.457Z,97168.20
2023-03-04T09:02:08.849Z,97164.39
2023-03-04T09:04:38.974Z,97155.98
2023-03-04T09:07:09.688Z,97154.86
2023-03-04T09:09:39.618Z,97151.87
2023-03-04T09:12:11.758Z,97152.06
2023-03-04T09:14:41.708Z,97160.22
2023-03-04T09:17:11.714Z,97154.23
2023-03-04T09:19:41.669Z,97153.15
2023-03-04T09:22:11.536Z,97156.64
2023-03-04T09:24:52.702Z,97162.03
2023-03-04T09:27:22.648Z,97162.31
2023-03-04T09:29:52.516Z,97165.03
2023-03-04T09:32:22.549Z,97154.39
2023-03-04T09:34:52.598Z,97162.00
2023-03-04T09:37:22.637Z,97168.75
2023-03-04T09:39:52.770Z,97170.37
2023-03-04T09:42:37.080Z,97171.19
2023-03-04T09:45:07.939Z,97173.59
2023-03-04T09:47:37.836Z,97177.62
2023-03-04T09:50:09.705Z,97186.58
2023-03-04T09:53:01.412Z,97187.63
2023-03-04T09:55:35.611Z,97191.16
2023-03-04T09:58:17.634Z,97195.69
2023-03-04T10:00:54.531Z,97199.53
2023-03-04T10:03:26.477Z,97203.28
2023-03-04T10:06:04.313Z,97200.57
2023-03-04T10:08:36.923Z,97210.02
2023-03-04T10:11:12.463Z,97208.67
2023-03-04T10:13:44.897Z,97210.80
2023-03-04T10:16:16.670Z,97210.52
2023-03-04T10:19:13.561Z,97205.88
2023-03-04T10:21:47.473Z,97208.28
2023-03-04T10:24:18.950Z,97209.87
2023-03-04T10:26:50.256Z,97212.81
2023-03-04T10:29:22.504Z,97214.17
2023-03-04T10:31:52.414Z,97217.38
2023-03-04T10:34:25.783Z,97221.17
2023-03-04T10:37:03.230Z,97223.34
2023-03-04T10:39:38.120Z,97223.58
2023-03-04T10:42:20.543Z,97227.09
2023-03-04T10:44:57.870Z,97223.52
2023-03-04T10:47:32.051Z,97229.72
2023-03-04T10:50:25.747Z,97232.97
2023-03-04T10:52:56.474Z,97232.70
2023-03-04T10:55:34.405Z,97238.09
2023-03-04T10:58:08.385Z,97237.81
2023-03-04T11:00:38.797Z,97231.62
2023-03-04T11:03:32.670Z,97232.17
2023-03-04T11:06:26.640Z,97228.95
2023-03-04T11:09:00.771Z,97236.83
2023-03-04T11:11:42.748Z,97242.87
2023-03-04T11:14:18.094Z,97240.44
2023-03-04T11:16:51.664Z,97236.19
2023-03-04T11:19:21.786Z,97231.11
2023-03-04T11:21:52.760Z,97225.77
2023-03-04T11:24:29.515Z,97229.38
2023-03-04T11:27:09.725Z,97237.89
2023-03-04T11:29:55.115Z,97239.33
2023-03-04T11:32:32.007Z,97240.23
2023-03-04T11:35:06.983Z,97240.27
2023-03-04T11:37:52.245Z,97239.81
2023-03-04T11:40:24.815Z,97237.45
2023-03-04T11:43:00.666Z,97238.11
2023-03-04T11:46:08.698Z,97243.89
2023-03-04T11:49:02.774Z,97247.80
2023-03-04T11:51:54.607Z,97249.75
2023-03-04T11:55:03.588Z,97249.00
2023-03-04T11:58:11.269Z,97242.56
2023-03-04T12:00:59.318Z,97241.06
2023-03-04T12:03:49.400Z,97242.77
2023-03-04T12:06:24.555Z,97244.77
2023-03-04T12:09:16.207Z,97243.75
2023-03-04T12:12:19.816Z,97234.84
2023-03-04T12:15:10.080Z,97246.64
2023-03-04T12:17:54.884Z,97240.17
2023-03-04T12:20:30.522Z,97241.87
2023-03-04T12:23:19.567Z,97236.77
2023-03-04T12:26:09.443Z,97229.73
2023-03-04T12:28:52.217Z,97235.50
2023-03-04T12:31:36.513Z,97242.11
2023-03-04T12:34:25.770Z,97247.61
2023-03-04T12:37:01.611Z,97262.90
2023-03-04T12:39:39.952Z,97268.70
2023-03-04T12:42:21.174Z,97273.08
2023-03-04T12:45:02.330Z,97285.11
2023-03-04T12:47:55.737Z,97304.45
2023-03-04T12:56:14.034Z,97338.89
2023-03-04T12:58:54.901Z,97344.61
2023-03-04T13:01:33.726Z,97363.14
2023-03-04T13:04:18.649Z,97356.09
2023-03-04T13:07:07.906Z,97363.75
2023-03-04T13:09:49.657Z,97369.77
2023-03-04T13:12:23.460Z,97380.41
2023-03-04T13:15:13.843Z,97385.88
2023-03-04T13:17:52.277Z,97393.53
2023-03-04T13:20:33.625Z,97384.58
2023-03-04T13:23:18.342Z,97383.24
2023-03-04T13:25:53.768Z,97384.88
2023-03-04T13:28:25.228Z,97383.55
2023-03-04T13:30:58.130Z,97381.09
2023-03-04T13:33:32.162Z,97377.58
2023-03-04T13:36:04.967Z,97369.98
2023-03-04T13:38:39.271Z,97377.36
2023-03-04T13:41:20.660Z,97392.64
2023-03-04T13:43:51.157Z,97391.03
2023-03-04T13:46:28.285Z,97406.55
2023-03-04T13:49:01.104Z,97412.84
2023-03-04T13:51:41.638Z,97420.22
2023-03-04T13:54:27.600Z,97430.33
2023-03-04T13:57:05.813Z,97417.86
2023-03-04T13:59:48.507Z,97429.30
2023-03-04T14:02:23.900Z,97428.48
2023-03-04T14:05:04.608Z,97446.48
2023-03-04T14:07:39.021Z,97438.86
2023-03-04T14:10:15.814Z,97448.16
2023-03-04T14:12:47.994Z,97456.05
2023-03-04T14:15:20.650Z,97461.25
2023-03-04T14:17:53.801Z,97461.80
2023-03-04T14:20:34.059Z,97457.41
2023-03-04T14:23:05.253Z,97457.41
2023-03-04T14:25:37.522Z,97463.16
2023-03-04T14:28:15.066Z,97460.11
2023-03-04T14:30:45.548Z,97469.92
2023-03-04T14:33:20.698Z,97485.17
2023-03-04T14:35:52.004Z,97487.35
2023-03-04T14:38:38.680Z,97491.44
2023-03-04T14:41:14.523Z,97496.59
2023-03-04T14:43:50.029Z,97500.67
2023-03-04T14:46:19.972Z,97504.76
2023-03-04T14:48:51.835Z,97509.12
2023-03-04T14:51:48.000Z,97510.69
2023-03-04T14:54:35.831Z,97520.22
2023-03-04T14:57:26.972Z,97531.36
2023-03-04T14:59:56.945Z,97535.45
2023-03-04T15:02:43.079Z,97537.90
2023-03-04T15:05:17.437Z,97545.25
2023-03-04T15:07:48.401Z,97549.03
2023-03-04T15:10:19.726Z,97547.95
2023-03-04T15:12:58.742Z,97549.03
2023-03-04T15:15:37.275Z,97555.00
2023-03-04T15:18:15.500Z,97560.72
2023-03-04T15:20:45.449Z,97560.41
2023-03-04T15:23:17.139Z,97550.88
2023-03-04T15:25:47.115Z,97557.95
2023-03-04T15:28:20.065Z,97563.41
2023-03-04T15:30:50.639Z,97566.37
2023-03-04T15:33:21.323Z,97562.55
2023-03-04T15:35:57.230Z,97569.36
2023-03-04T15:38:27.130Z,97564.73
2023-03-04T15:40:59.323Z,97572.88
2023-03-04T15:43:30.222Z,97566.06
2023-03-04T15:46:01.411Z,97564.66
2023-03-04T15:48:32.548Z,97564.91
2023-03-04T15:51:08.900Z,97566.57
2023-03-04T15:53:41.723Z,97569.87
2023-03-04T15:56:17.130Z,97566.88
2023-03-04T15:58:47.413Z,97563.09
2023-03-04T16:01:18.350Z,97562.01
2023-03-04T16:03:48.913Z,97565.00
2023-03-04T16:06:36.032Z,97572.94
2023-03-04T16:09:09.240Z,97572.97
2023-03-04T16:11:39.007Z,97575.16
2023-03-04T16:14:11.916Z,97574.06
2023-03-04T16:16:41.367Z,97579.23
2023-03-04T16:19:11.426Z,97579.52
2023-03-04T16:21:41.609Z,97575.73
2023-03-04T16:24:14.617Z,97572.19
2023-03-04T16:26:44.536Z,97567.83
2023-03-04T16:29:34.650Z,97570.28
2023-03-04T16:32:04.851Z,97562.92
2023-03-04T16:34:35.097Z,97567.02
2023-03-04T16:37:07.512Z,97564.29
2023-03-04T16:39:37.383Z,97561.56
2023-03-04T16:42:09.556Z,97559.93
2023-03-04T16:44:39.524Z,97566.20
2023-03-04T16:47:10.785Z,97557.20
2023-03-04T16:49:42.831Z,97555.54
2023-03-04T16:52:24.279Z,97554.72
2023-03-04T16:54:54.124Z,97552.78
2023-03-04T16:57:24.061Z,97549.24
2023-03-04T16:59:55.471Z,97544.61
2023-03-04T17:02:27.351Z,97540.80
2023-03-04T17:04:58.696Z,97548.13
2023-03-04T17:07:28.754Z,97541.61
2023-03-04T17:09:58.661Z,97551.15
2023-03-04T17:12:28.859Z,97557.38
2023-03-04T17:14:58.916Z,97554.66
2023-03-04T17:17:28.763Z,97561.22
2023-03-04T17:19:58.640Z,97559.02
2023-03-04T17:22:28.551Z,97568.27
2023-03-04T17:24:58.451Z,97566.09
2023-03-04T17:27:28.285Z,97571.51
2023-03-04T17:30:01.343Z,97570.42
2023-03-04T17:32:33.349Z,97582.16
2023-03-04T17:35:03.981Z,97576.95
2023-03-04T17:37:37.515Z,97581.86
2023-03-04T17:40:12.295Z,97579.41
2023-03-04T17:42:47.620Z,97579.67
2023-03-04T17:45:17.449Z,97570.92
2023-03-04T17:47:50.467Z,97572.02
2023-03-04T17:50:21.966Z,97568.51
2023-03-04T17:52:53.437Z,97570.92
2023-03-04T17:55:23.416Z,97565.20
2023-03-04T17:57:53.732Z,97571.75
2023-03-04T18:00:29.688Z,97578.55
2023-03-04T18:03:00.450Z,97579.88
2023-03-04T18:05:31.646Z,97579.38
2023-03-04T18:08:04.373Z,97585.63
2023-03-04T18:10:35.052Z,97576.06
2023-03-04T18:13:04.920Z,97574.98
2023-03-04T18:15:35.128Z,97573.07
2023-03-04T18:18:06.021Z,97567.94
2023-03-04T18:20:35.982Z,97573.92
2023-03-04T18:23:06.132Z,97575.52
2023-03-04T18:25:36.071Z,97571.20
2023-03-04T18:28:08.472Z,97575.80
2023-03-04T18:30:37.608Z,97573.07
2023-03-04T18:33:08.937Z,97570.35
2023-03-04T18:35:39.027Z,97572.80
2023-03-04T18:38:09.013Z,97568.98
2023-03-04T18:40:43.420Z,97568.98
2023-03-04T18:43:15.992Z,97563.03
2023-03-04T18:45:54.086Z,97558.95
2023-03-04T18:48:25.778Z,97558.41
2023-03-04T18:50:57.021Z,97555.92
2023-03-04T18:53:29.721Z,97560.00
2023-03-04T18:56:04.359Z,97555.09
2023-03-04T18:58:35.946Z,97554.02
2023-03-04T19:01:06.561Z,97552.64
2023-03-04T19:03:38.042Z,97552.38
2023-03-04T19:06:08.460Z,97550.47
2023-03-04T19:08:46.850Z,97541.48
2023-03-04T19:11:14.544Z,97546.92
2023-03-04T19:13:44.555Z,97548.29
2023-03-04T19:16:14.665Z,97547.20
2023-03-04T19:18:44.569Z,97538.76
2023-03-04T19:21:14.458Z,97534.67
2023-03-04T19:23:45.324Z,97531.95
2023-03-04T19:26:16.134Z,97516.03
2023-03-04T19:28:46.125Z,97516.03
2023-03-04T19:31:27.794Z,97525.41
2023-03-04T19:33:57.661Z,97524.05
2023-03-04T19:36:27.688Z,97525.14
2023-03-04T19:38:58.179Z,97528.69
2023-03-04T19:41:28.332Z,97515.61
2023-03-04T19:43:59.077Z,97522.69
2023-03-04T19:46:29.985Z,97521.06
2023-03-04T19:49:00.720Z,97525.96
2023-03-04T19:51:32.882Z,97520.27
2023-03-04T19:54:03.983Z,97513.47
2023-03-04T19:56:35.637Z,97514.28
2023-03-04T19:59:05.663Z,97509.66
2023-03-04T20:01:37.664Z,97516.46
2023-03-04T20:04:11.230Z,97512.68
2023-03-04T20:06:43.083Z,97513.20
2023-03-04T20:09:12.983Z,97514.31
2023-03-04T20:11:56.563Z,97512.38
2023-03-04T20:14:15.423Z,97515.41
2023-03-04T20:16:51.527Z,97511.83
2023-03-04T20:19:21.516Z,97516.22
2023-03-04T20:21:51.607Z,97515.13
2023-03-04T20:24:25.030Z,97516.25
2023-03-04T20:26:55.023Z,97512.17
2023-03-04T20:29:26.665Z,97513.80
2023-03-04T20:31:56.610Z,97524.70
2023-03-04T20:34:28.537Z,97520.06
2023-03-04T20:37:00.157Z,97514.08
2023-03-04T20:39:30.427Z,97523.09
2023-03-04T20:42:00.575Z,97520.88
2023-03-04T20:44:32.035Z,97526.91
2023-03-04T20:47:02.673Z,97523.13
2023-03-04T20:49:33.701Z,97514.95
2023-03-04T20:52:10.399Z,97521.25
2023-03-04T20:54:41.436Z,97513.35
2023-03-04T20:57:11.596Z,97506.27
2023-03-04T20:59:41.885Z,97507.36
2023-03-04T21:02:13.457Z,97514.72
2023-03-04T21:04:44.749Z,97512.56
2023-03-04T21:07:14.717Z,97517.47
2023-03-04T21:09:45.489Z,97512.84
2023-03-04T21:12:15.410Z,97509.56
2023-03-04T21:14:45.805Z,97502.25
2023-03-04T21:17:15.677Z,97501.16
2023-03-04T21:19:45.695Z,97495.70
2023-03-04T21:22:17.629Z,97501.77
2023-03-04T21:24:47.570Z,97505.03
2023-03-04T21:27:17.604Z,97501.77
2023-03-04T21:29:47.444Z,97496.59
2023-03-04T21:32:24.674Z,97494.16
2023-03-04T21:34:52.793Z,97497.98
2023-03-04T21:37:23.059Z,97494.70
2023-03-04T21:39:55.343Z,97490.38
2023-03-04T21:42:25.432Z,97486.59
2023-03-04T21:44:55.447Z,97468.61
2023-03-04T21:47:25.852Z,97470.55
2023-03-04T21:49:55.803Z,97466.73
2023-03-04T21:52:25.716Z,97465.94
2023-03-04T21:54:56.712Z,97453.88
2023-03-04T21:57:26.613Z,97462.97
2023-03-04T21:59:56.444Z,97460.55
2023-03-04T22:02:28.921Z,97462.72
2023-03-04T22:04:59.098Z,97465.72
2023-03-04T22:07:28.989Z,97472.29
2023-03-04T22:10:00.404Z,97485.09
2023-03-04T22:12:30.334Z,97486.45
2023-03-04T22:15:00.516Z,97494.66
2023-03-04T22:17:30.477Z,97503.68
2023-03-04T22:20:00.449Z,97502.34
2023-03-04T22:22:31.031Z,97496.89
2023-03-04T22:25:04.229Z,97501.80
2023-03-04T22:27:35.186Z,97503.19
2023-03-04T22:30:06.369Z,97492.28
2023-03-04T22:32:36.338Z,97493.10
2023-03-04T22:35:08.659Z,97500.48
2023-03-04T22:37:38.671Z,97502.66
2023-03-04T22:40:11.329Z,97498.30
2023-03-04T22:42:40.968Z,97491.24
2023-03-04T22:45:12.028Z,97489.33
2023-03-04T22:47:42.226Z,97489.60
2023-03-04T22:50:13.415Z,97482.52
2023-03-04T22:52:45.088Z,97489.91
2023-03-04T22:55:24.479Z,97496.17
2023-03-04T22:57:54.311Z,97491.84
2023-03-04T23:00:25.494Z,97497.56
2023-03-04T23:02:55.792Z,97498.69
2023-03-04T23:05:26.063Z,97490.50
2023-03-04T23:07:56.158Z,97490.77
2023-03-04T23:10:26.753Z,97488.31
2023-03-04T23:12:57.191Z,97491.34
2023-03-04T23:15:27.455Z,97491.06
2023-03-04T23:17:58.765Z,97493.25
2023-03-04T23:20:29.170Z,97493.00
2023-03-04T23:22:59.150Z,97496.00
2023-03-04T23:25:29.224Z,97499.84
2023-03-04T23:27:58.934Z,97510.20
2023-03-04T23:30:29.056Z,97510.77
2023-03-04T23:32:59.034Z,97514.58
2023-03-04T23:35:30.519Z,97517.86
2023-03-04T23:38:00.546Z,97514.58
2023-03-04T23:40:30.422Z,97523.06
2023-03-04T23:43:00.292Z,97526.34
2023-03-04T23:45:30.250Z,97526.88
2023-03-04T23:48:00.354Z,97526.61
2023-03-04T23:50:36.609Z,97531.52
2023-03-04T23:53:06.628Z,97532.33
2023-03-04T23:55:36.840Z,97532.33
2023-03-04T23:58:06.668Z,97528.24
